createdAt,value
2018-05-03T07:08:43.000Z,32.82
2018-05-03T07:08:53.000Z,32.62
2018-05-03T07:09:03.000Z,32.62
2018-05-03T07:09:13.000Z,32.71
2018-05-03T07:09:23.000Z,33.10
2018-05-03T07:09:33.000Z,33.00
2018-05-03T07:09:43.000Z,33.20
2018-05-03T07:09:53.000Z,33.10
2018-05-03T07:10:03.000Z,33.10
2018-05-03T07:10:13.000Z,33.00
2018-05-03T07:10:23.000Z,33.10
2018-05-03T07:10:33.000Z,33.29
2018-05-03T07:10:43.000Z,33.00
2018-05-03T07:10:53.000Z,33.00
2018-05-03T07:11:03.000Z,33.29
2018-05-03T07:11:13.000Z,33.20
2018-05-03T07:11:23.000Z,33.29
2018-05-03T07:11:33.000Z,33.20
2018-05-03T07:11:43.000Z,33.10
2018-05-03T07:11:53.000Z,33.29
2018-05-03T07:12:03.000Z,32.91
2018-05-03T07:12:13.000Z,33.02
2018-05-03T07:12:23.000Z,32.82
2018-05-03T07:12:33.000Z,32.64
2018-05-03T07:12:43.000Z,32.64
2018-05-03T07:12:53.000Z,32.54
2018-05-03T07:13:03.000Z,32.44
2018-05-03T07:13:13.000Z,32.34
2018-05-03T07:13:23.000Z,32.34
2018-05-03T07:13:33.000Z,32.44
2018-05-03T07:13:43.000Z,32.44
2018-05-03T07:13:53.000Z,32.44
2018-05-03T07:14:03.000Z,32.44
2018-05-03T07:14:13.000Z,32.44
2018-05-03T07:14:23.000Z,32.54
2018-05-03T07:14:33.000Z,32.36
2018-05-03T07:14:43.000Z,32.26
2018-05-03T07:14:53.000Z,32.56
2018-05-03T07:15:03.000Z,32.18
2018-05-03T07:15:13.000Z,31.70
2018-05-03T07:15:23.000Z,31.62
2018-05-03T07:15:33.000Z,31.60
2018-05-03T07:15:43.000Z,31.43
2018-05-03T07:15:53.000Z,31.12
2018-05-03T07:16:03.000Z,31.12
2018-05-03T07:16:12.000Z,30.94
2018-05-03T07:16:22.000Z,30.85
2018-05-03T07:16:32.000Z,30.93
2018-05-03T07:16:42.000Z,30.93
2018-05-03T07:16:52.000Z,30.93
2018-05-03T07:17:02.000Z,30.83
2018-05-03T07:17:12.000Z,30.93
2018-05-03T07:17:22.000Z,31.01
2018-05-03T07:17:32.000Z,31.10
2018-05-03T07:17:42.000Z,31.25
2018-05-03T07:17:52.000Z,30.49
2018-05-03T07:18:02.000Z,30.02
2018-05-03T07:18:12.000Z,29.46
2018-05-03T07:18:22.000Z,29.15
2018-05-03T07:18:32.000Z,29.24
2018-05-03T07:18:42.000Z,29.13
2018-05-03T07:18:52.000Z,29.02
2018-05-03T07:19:02.000Z,29.32
2018-05-03T07:19:12.000Z,29.43
2018-05-03T07:19:22.000Z,29.32
2018-05-03T07:19:32.000Z,29.70
2018-05-03T07:19:42.000Z,29.70
2018-05-03T07:19:52.000Z,29.90
2018-05-03T07:20:02.000Z,29.70
2018-05-03T07:20:12.000Z,29.90
2018-05-03T07:20:22.000Z,29.90
2018-05-03T07:20:32.000Z,29.90
2018-05-03T07:20:42.000Z,30.10
2018-05-03T07:20:52.000Z,29.71
2018-05-03T07:21:02.000Z,29.63
2018-05-03T07:21:12.000Z,29.33
2018-05-03T07:21:22.000Z,29.32
2018-05-03T07:21:32.000Z,29.50
2018-05-03T07:21:42.000Z,29.52
2018-05-03T07:21:52.000Z,29.70
2018-05-03T07:22:02.000Z,29.50
2018-05-03T07:22:12.000Z,29.90
2018-05-03T07:22:22.000Z,29.88
2018-05-03T07:22:32.000Z,30.27
2018-05-03T07:22:42.000Z,30.07
2018-05-03T07:22:52.000Z,30.36
2018-05-03T07:23:02.000Z,30.73
2018-05-03T07:23:12.000Z,30.54
2018-05-03T07:23:22.000Z,31.02
2018-05-03T07:23:32.000Z,30.73
2018-05-03T07:23:42.000Z,31.22
2018-05-03T07:23:52.000Z,31.30
2018-05-03T07:24:02.000Z,31.22
2018-05-03T07:24:12.000Z,31.20
2018-05-03T07:24:22.000Z,31.59
2018-05-03T07:24:32.000Z,31.68
2018-05-03T07:24:42.000Z,31.68
2018-05-03T07:24:52.000Z,31.78
2018-05-03T07:25:02.000Z,31.78
2018-05-03T07:25:12.000Z,31.59
2018-05-03T07:25:22.000Z,31.59
2018-05-03T07:25:32.000Z,31.49
2018-05-03T07:25:42.000Z,32.07
2018-05-03T07:25:52.000Z,32.17
2018-05-03T07:26:02.000Z,32.17
2018-05-03T07:26:12.000Z,32.17
2018-05-03T07:26:22.000Z,32.17
2018-05-03T07:26:32.000Z,32.07
2018-05-03T07:26:42.000Z,31.51
2018-05-03T07:26:52.000Z,31.70
2018-05-03T07:27:02.000Z,31.70
2018-05-03T07:27:12.000Z,31.70
2018-05-03T07:27:22.000Z,31.71
2018-05-03T07:27:32.000Z,31.81
2018-05-03T07:27:42.000Z,31.62
2018-05-03T07:27:52.000Z,31.71
2018-05-03T07:28:02.000Z,31.71
2018-05-03T07:28:12.000Z,31.62
2018-05-03T07:28:22.000Z,31.83
2018-05-03T07:28:32.000Z,31.34
2018-05-03T07:28:42.000Z,31.34
2018-05-03T07:28:52.000Z,31.34
2018-05-03T07:29:02.000Z,31.25
2018-05-03T07:29:12.000Z,30.76
2018-05-03T07:29:22.000Z,30.88
2018-05-03T07:29:32.000Z,30.88
2018-05-03T07:29:42.000Z,30.49
2018-05-03T07:29:52.000Z,30.58
2018-05-03T07:30:02.000Z,30.49
2018-05-03T07:30:12.000Z,30.68
2018-05-03T07:30:22.000Z,30.60
2018-05-03T07:30:32.000Z,30.51
2018-05-03T07:30:42.000Z,30.02
2018-05-03T07:30:52.000Z,30.13
2018-05-03T07:31:02.000Z,29.76
2018-05-03T07:31:12.000Z,29.66
2018-05-03T07:31:22.000Z,29.27
2018-05-03T07:31:32.000Z,29.19
2018-05-03T07:31:42.000Z,29.10
2018-05-03T07:31:52.000Z,29.00
2018-05-03T07:32:02.000Z,28.70
2018-05-03T07:32:12.000Z,28.32
2018-05-03T07:32:22.000Z,28.89
2018-05-03T07:32:32.000Z,29.17
2018-05-03T07:32:42.000Z,29.26
2018-05-03T07:32:52.000Z,29.17
2018-05-03T07:33:02.000Z,29.36
2018-05-03T07:33:12.000Z,29.37
2018-05-03T07:33:22.000Z,29.26
2018-05-03T07:33:32.000Z,29.16
2018-05-03T07:33:42.000Z,29.34
2018-05-03T07:33:52.000Z,29.34
2018-05-03T07:34:02.000Z,29.91
2018-05-03T07:34:12.000Z,29.90
2018-05-03T07:34:22.000Z,30.18
2018-05-03T07:34:32.000Z,30.38
2018-05-03T07:34:42.000Z,30.46
2018-05-03T07:34:52.000Z,30.75
2018-05-03T07:35:02.000Z,31.41
2018-05-03T07:35:12.000Z,31.60
2018-05-03T07:35:22.000Z,31.78
2018-05-03T07:35:32.000Z,32.17
2018-05-03T07:35:42.000Z,32.36
2018-05-03T07:35:52.000Z,32.65
2018-05-03T07:36:02.000Z,32.82
2018-05-03T07:36:12.000Z,32.34
2018-05-03T07:36:22.000Z,33.22
2018-05-03T07:36:32.000Z,32.91
2018-05-03T07:36:42.000Z,33.10
2018-05-03T07:36:52.000Z,33.20
2018-05-03T07:37:02.000Z,33.20
2018-05-03T07:37:12.000Z,33.48
2018-05-03T07:37:22.000Z,33.66
2018-05-03T07:37:32.000Z,33.95
2018-05-03T07:37:42.000Z,34.05
2018-05-03T07:37:52.000Z,34.05
2018-05-03T07:38:02.000Z,33.86
2018-05-03T07:38:12.000Z,34.24
2018-05-03T07:38:22.000Z,34.14
2018-05-03T07:38:32.000Z,34.53
2018-05-03T07:38:42.000Z,34.42
2018-05-03T07:38:52.000Z,34.52
2018-05-03T07:39:02.000Z,34.80
2018-05-03T07:39:12.000Z,34.70
2018-05-03T07:39:22.000Z,34.80
2018-05-03T07:39:32.000Z,34.80
2018-05-03T07:39:42.000Z,35.00
2018-05-03T07:39:52.000Z,35.00
2018-05-03T07:40:02.000Z,35.08
2018-05-03T07:40:12.000Z,35.17
2018-05-03T07:40:22.000Z,35.08
2018-05-03T07:40:32.000Z,35.27
2018-05-03T07:40:42.000Z,35.27
2018-05-03T07:40:52.000Z,35.46
2018-05-03T07:41:02.000Z,35.46
2018-05-03T07:41:12.000Z,35.46
2018-05-03T07:41:22.000Z,35.46
2018-05-03T07:41:32.000Z,35.65
2018-05-03T07:41:42.000Z,35.54
2018-05-03T07:41:52.000Z,35.54
2018-05-03T07:42:02.000Z,35.56
2018-05-03T07:42:12.000Z,35.64
2018-05-03T07:42:22.000Z,35.73
2018-05-03T07:42:32.000Z,35.64
2018-05-03T07:42:42.000Z,35.83
2018-05-03T07:42:52.000Z,35.93
2018-05-03T07:43:02.000Z,35.93
2018-05-03T07:43:12.000Z,35.93
2018-05-03T07:43:22.000Z,35.93
2018-05-03T07:43:32.000Z,35.73
2018-05-03T07:43:42.000Z,35.64
2018-05-03T07:43:52.000Z,35.64
2018-05-03T07:44:01.000Z,35.54
2018-05-03T07:44:12.000Z,35.73
2018-05-03T07:44:21.000Z,35.73
2018-05-03T07:44:31.000Z,35.64
2018-05-03T07:44:41.000Z,35.73
2018-05-03T07:44:51.000Z,35.71
2018-05-03T07:45:01.000Z,35.62
2018-05-03T07:45:11.000Z,35.62
2018-05-03T07:45:21.000Z,35.62
2018-05-03T07:45:31.000Z,35.71
2018-05-03T07:45:41.000Z,35.71
2018-05-03T07:45:51.000Z,35.71
2018-05-03T07:46:01.000Z,35.62
2018-05-03T07:46:11.000Z,35.64
2018-05-03T07:46:21.000Z,35.46
2018-05-03T07:46:31.000Z,35.27
2018-05-03T07:46:41.000Z,34.88
2018-05-03T07:46:51.000Z,34.88
2018-05-03T07:47:01.000Z,34.61
2018-05-03T07:47:11.000Z,34.22
2018-05-03T07:47:21.000Z,33.84
2018-05-03T07:47:31.000Z,33.47
2018-05-03T07:47:41.000Z,33.76
2018-05-03T07:47:51.000Z,32.89
2018-05-03T07:48:01.000Z,32.71
2018-05-03T07:48:11.000Z,32.62
2018-05-03T07:48:21.000Z,32.71
2018-05-03T07:48:31.000Z,32.43
2018-05-03T07:48:41.000Z,32.33
2018-05-03T07:48:51.000Z,32.14
2018-05-03T07:49:01.000Z,31.48
2018-05-03T07:49:11.000Z,31.67
2018-05-03T07:49:21.000Z,31.76
2018-05-03T07:49:31.000Z,31.57
2018-05-03T07:49:41.000Z,31.68
2018-05-03T07:49:51.000Z,31.20
2018-05-03T07:50:01.000Z,30.91
2018-05-03T07:50:11.000Z,30.93
2018-05-03T07:50:21.000Z,30.54
2018-05-03T07:50:31.000Z,30.44
2018-05-03T07:50:41.000Z,30.55
2018-05-03T07:50:51.000Z,30.07
2018-05-03T07:51:01.000Z,30.17
2018-05-03T07:51:11.000Z,30.36
2018-05-03T07:51:21.000Z,30.08
2018-05-03T07:51:31.000Z,29.99
2018-05-03T07:51:41.000Z,29.99
2018-05-03T07:51:51.000Z,29.80
2018-05-03T07:52:01.000Z,29.70
2018-05-03T07:52:11.000Z,29.50
2018-05-03T07:52:21.000Z,29.43
2018-05-03T07:52:31.000Z,29.43
2018-05-03T07:52:41.000Z,29.15
2018-05-03T07:52:51.000Z,29.15
2018-05-03T07:53:01.000Z,29.24
2018-05-03T07:53:11.000Z,28.87
2018-05-03T07:53:21.000Z,28.58
2018-05-03T07:53:31.000Z,28.58
2018-05-03T07:53:41.000Z,28.50
2018-05-03T07:53:51.000Z,28.50
2018-05-03T07:54:01.000Z,28.20
2018-05-03T07:54:11.000Z,28.20
2018-05-03T07:54:21.000Z,27.72
2018-05-03T07:54:31.000Z,27.83
2018-05-03T07:54:41.000Z,27.45
2018-05-03T07:54:51.000Z,27.75
2018-05-03T07:55:01.000Z,26.98
2018-05-03T07:55:11.000Z,26.70
2018-05-03T07:55:21.000Z,26.42
2018-05-03T07:55:31.000Z,26.32
2018-05-03T07:55:41.000Z,26.04
2018-05-03T07:55:51.000Z,25.95
2018-05-03T07:56:01.000Z,25.84
2018-05-03T07:56:11.000Z,26.01
2018-05-03T07:56:21.000Z,26.12
2018-05-03T07:56:31.000Z,26.40
2018-05-03T07:56:41.000Z,26.31
2018-05-03T07:56:51.000Z,26.59
2018-05-03T07:57:01.000Z,27.00
2018-05-03T07:57:11.000Z,26.51
2018-05-03T07:57:21.000Z,26.90
2018-05-03T07:57:31.000Z,26.62
2018-05-03T07:57:41.000Z,26.53
2018-05-03T07:57:51.000Z,26.23
2018-05-03T07:58:01.000Z,26.33
2018-05-03T07:58:11.000Z,26.14
2018-05-03T07:58:21.000Z,26.04
2018-05-03T07:58:31.000Z,25.96
2018-05-03T07:58:41.000Z,25.86
2018-05-03T07:58:51.000Z,25.37
2018-05-03T07:59:01.000Z,25.37
2018-05-03T07:59:11.000Z,25.37
2018-05-03T07:59:21.000Z,25.16
2018-05-03T07:59:31.000Z,25.93
2018-05-03T07:59:41.000Z,26.31
2018-05-03T07:59:51.000Z,26.49
2018-05-03T08:00:01.000Z,26.78
2018-05-03T08:00:11.000Z,26.97
2018-05-03T08:00:21.000Z,27.35
2018-05-03T08:00:31.000Z,27.83
2018-05-03T08:00:41.000Z,27.43
2018-05-03T08:00:51.000Z,27.62
2018-05-03T08:01:01.000Z,28.30
2018-05-03T08:01:11.000Z,28.50
2018-05-03T08:01:21.000Z,28.49
2018-05-03T08:01:31.000Z,28.28
2018-05-03T08:01:41.000Z,28.87
2018-05-03T08:01:51.000Z,28.77
2018-05-03T08:02:01.000Z,29.05
2018-05-03T08:02:11.000Z,29.05
2018-05-03T08:02:21.000Z,29.23
2018-05-03T08:02:31.000Z,29.32
2018-05-03T08:02:41.000Z,29.70
2018-05-03T08:02:51.000Z,29.90
2018-05-03T08:03:01.000Z,29.90
2018-05-03T08:03:11.000Z,30.47
2018-05-03T08:03:21.000Z,30.08
2018-05-03T08:03:31.000Z,30.21
2018-05-03T08:03:41.000Z,29.91
2018-05-03T08:03:51.000Z,29.83
2018-05-03T08:04:01.000Z,29.53
2018-05-03T08:04:11.000Z,29.44
2018-05-03T08:04:21.000Z,29.53
2018-05-03T08:04:31.000Z,29.33
2018-05-03T08:04:41.000Z,29.33
2018-05-03T08:04:51.000Z,29.61
2018-05-03T08:05:01.000Z,29.60
2018-05-03T08:05:11.000Z,29.70
2018-05-03T08:05:21.000Z,29.99
2018-05-03T08:05:31.000Z,30.36
2018-05-03T08:05:41.000Z,30.55
2018-05-03T08:05:51.000Z,30.44
2018-05-03T08:06:01.000Z,30.44
2018-05-03T08:06:11.000Z,30.73
2018-05-03T08:06:21.000Z,31.22
2018-05-03T08:06:31.000Z,31.02
2018-05-03T08:06:41.000Z,31.30
2018-05-03T08:06:51.000Z,31.30
